sensor_id;sensor_type;location;lat;lon;timestamp;temperature;humidity
47310;DHT22;33046;52.270;6.832;2022-12-08T00:01:40;5.70;99.90
47310;DHT22;33046;52.270;6.832;2022-12-08T00:03:48;5.70;99.90
47310;DHT22;33046;52.270;6.832;2022-12-08T00:05:54;5.70;99.90
47310;DHT22;33046;52.270;6.832;2022-12-08T00:08:01;5.70;99.90
47310;DHT22;33046;52.270;6.832;2022-12-08T00:10:08;5.70;99.90
47310;DHT22;33046;52.270;6.832;2022-12-08T00:12:24;5.70;99.90
47310;DHT22;33046;52.270;6.832;2022-12-08T00:14:34;5.70;99.90
47310;DHT22;33046;52.270;6.832;2022-12-08T00:16:41;5.70;99.90
47310;DHT22;33046;52.270;6.832;2022-12-08T00:18:48;5.70;99.90
47310;DHT22;33046;52.270;6.832;2022-12-08T00:20:55;5.70;99.90
47310;DHT22;33046;52.270;6.832;2022-12-08T00:23:02;5.70;99.90
47310;DHT22;33046;52.270;6.832;2022-12-08T00:25:08;5.70;99.90
47310;DHT22;33046;52.270;6.832;2022-12-08T00:27:15;5.70;99.90
47310;DHT22;33046;52.270;6.832;2022-12-08T00:29:22;5.70;99.90
47310;DHT22;33046;52.270;6.832;2022-12-08T00:31:30;5.60;99.90
47310;DHT22;33046;52.270;6.832;2022-12-08T00:33:37;5.60;99.90
47310;DHT22;33046;52.270;6.832;2022-12-08T00:35:44;5.60;99.90
47310;DHT22;33046;52.270;6.832;2022-12-08T00:37:51;5.60;99.90
47310;DHT22;33046;52.270;6.832;2022-12-08T00:40:00;5.60;99.90
47310;DHT22;33046;52.270;6.832;2022-12-08T00:42:08;5.60;99.90
47310;DHT22;33046;52.270;6.832;2022-12-08T00:44:16;5.60;99.90
47310;DHT22;33046;52.270;6.832;2022-12-08T00:46:23;5.60;99.90
47310;DHT22;33046;52.270;6.832;2022-12-08T00:48:31;5.60;99.90
47310;DHT22;33046;52.270;6.832;2022-12-08T00:50:38;5.60;99.90
47310;DHT22;33046;52.270;6.832;2022-12-08T00:52:45;5.60;99.90
47310;DHT22;33046;52.270;6.832;2022-12-08T00:54:51;5.60;99.90
47310;DHT22;33046;52.270;6.832;2022-12-08T00:56:58;5.60;99.90
47310;DHT22;33046;52.270;6.832;2022-12-08T00:59:06;5.60;99.90
47310;DHT22;33046;52.270;6.832;2022-12-08T01:01:14;5.60;99.90
47310;DHT22;33046;52.270;6.832;2022-12-08T01:03:20;5.60;99.90
47310;DHT22;33046;52.270;6.832;2022-12-08T01:05:28;5.60;99.90
47310;DHT22;33046;52.270;6.832;2022-12-08T01:07:35;5.60;99.90
47310;DHT22;33046;52.270;6.832;2022-12-08T01:09:42;5.60;99.90
47310;DHT22;33046;52.270;6.832;2022-12-08T01:11:49;5.60;99.90
47310;DHT22;33046;52.270;6.832;2022-12-08T01:13:56;5.70;99.90
47310;DHT22;33046;52.270;6.832;2022-12-08T01:16:03;5.70;99.90
47310;DHT22;33046;52.270;6.832;2022-12-08T01:18:10;5.70;99.90
47310;DHT22;33046;52.270;6.832;2022-12-08T01:20:16;5.60;99.90
47310;DHT22;33046;52.270;6.832;2022-12-08T01:22:25;5.70;99.90
47310;DHT22;33046;52.270;6.832;2022-12-08T01:24:31;5.70;99.90
47310;DHT22;33046;52.270;6.832;2022-12-08T01:26:38;5.70;99.90
47310;DHT22;33046;52.270;6.832;2022-12-08T01:28:46;5.70;99.90
47310;DHT22;33046;52.270;6.832;2022-12-08T01:30:53;5.70;99.90
47310;DHT22;33046;52.270;6.832;2022-12-08T01:33:00;5.70;99.90
47310;DHT22;33046;52.270;6.832;2022-12-08T01:35:08;5.70;99.90
47310;DHT22;33046;52.270;6.832;2022-12-08T01:37:14;5.70;99.90
47310;DHT22;33046;52.270;6.832;2022-12-08T01:39:22;5.70;99.90
47310;DHT22;33046;52.270;6.832;2022-12-08T01:41:32;5.60;99.90
47310;DHT22;33046;52.270;6.832;2022-12-08T01:43:49;5.70;99.90
47310;DHT22;33046;52.270;6.832;2022-12-08T01:45:59;5.70;99.90
47310;DHT22;33046;52.270;6.832;2022-12-08T01:48:10;5.60;99.90
47310;DHT22;33046;52.270;6.832;2022-12-08T01:50:20;5.70;99.90
47310;DHT22;33046;52.270;6.832;2022-12-08T01:52:31;5.70;99.90
47310;DHT22;33046;52.270;6.832;2022-12-08T01:54:42;5.60;99.90
47310;DHT22;33046;52.270;6.832;2022-12-08T01:56:57;5.60;99.90
47310;DHT22;33046;52.270;6.832;2022-12-08T01:59:06;5.70;99.90
47310;DHT22;33046;52.270;6.832;2022-12-08T02:01:13;5.70;99.90
47310;DHT22;33046;52.270;6.832;2022-12-08T02:03:24;5.60;99.90
47310;DHT22;33046;52.270;6.832;2022-12-08T02:05:34;5.70;99.90
47310;DHT22;33046;52.270;6.832;2022-12-08T02:07:42;5.70;99.90
47310;DHT22;33046;52.270;6.832;2022-12-08T02:09:52;5.60;99.90
47310;DHT22;33046;52.270;6.832;2022-12-08T02:11:59;5.70;99.90
47310;DHT22;33046;52.270;6.832;2022-12-08T02:14:07;5.70;99.90
47310;DHT22;33046;52.270;6.832;2022-12-08T02:16:24;5.70;99.90
47310;DHT22;33046;52.270;6.832;2022-12-08T02:18:45;5.70;99.90
47310;DHT22;33046;52.270;6.832;2022-12-08T02:21:06;5.70;99.90
47310;DHT22;33046;52.270;6.832;2022-12-08T02:23:23;5.70;99.90
47310;DHT22;33046;52.270;6.832;2022-12-08T02:25:41;5.70;99.90
47310;DHT22;33046;52.270;6.832;2022-12-08T02:27:58;5.70;99.90
47310;DHT22;33046;52.270;6.832;2022-12-08T02:30:16;5.70;99.90
47310;DHT22;33046;52.270;6.832;2022-12-08T02:33:04;5.70;99.90
47310;DHT22;33046;52.270;6.832;2022-12-08T02:35:18;5.70;99.90
47310;DHT22;33046;52.270;6.832;2022-12-08T02:37:29;5.70;99.90
47310;DHT22;33046;52.270;6.832;2022-12-08T02:39:41;5.70;99.90
47310;DHT22;33046;52.270;6.832;2022-12-08T02:41:53;5.70;99.90
47310;DHT22;33046;52.270;6.832;2022-12-08T02:44:07;5.70;99.90
47310;DHT22;33046;52.270;6.832;2022-12-08T02:46:20;5.70;99.90
47310;DHT22;33046;52.270;6.832;2022-12-08T02:48:28;5.70;99.90
47310;DHT22;33046;52.270;6.832;2022-12-08T02:50:36;5.70;99.90
47310;DHT22;33046;52.270;6.832;2022-12-08T02:52:44;5.70;99.90
47310;DHT22;33046;52.270;6.832;2022-12-08T02:54:54;5.70;99.90
47310;DHT22;33046;52.270;6.832;2022-12-08T02:57:22;5.70;99.90
47310;DHT22;33046;52.270;6.832;2022-12-08T02:59:40;5.70;99.90
47310;DHT22;33046;52.270;6.832;2022-12-08T03:02:05;5.70;99.90
47310;DHT22;33046;52.270;6.832;2022-12-08T03:04:23;5.70;99.90
47310;DHT22;33046;52.270;6.832;2022-12-08T03:06:37;5.70;99.90
47310;DHT22;33046;52.270;6.832;2022-12-08T03:08:50;5.70;99.90
47310;DHT22;33046;52.270;6.832;2022-12-08T03:11:02;5.70;99.90
47310;DHT22;33046;52.270;6.832;2022-12-08T03:13:13;5.70;99.90
47310;DHT22;33046;52.270;6.832;2022-12-08T03:15:21;5.70;99.90
47310;DHT22;33046;52.270;6.832;2022-12-08T03:17:28;5.70;99.90
47310;DHT22;33046;52.270;6.832;2022-12-08T03:19:38;5.70;99.90
47310;DHT22;33046;52.270;6.832;2022-12-08T03:21:51;5.70;99.90
47310;DHT22;33046;52.270;6.832;2022-12-08T03:24:00;5.70;99.90
47310;DHT22;33046;52.270;6.832;2022-12-08T03:26:11;5.70;99.90
47310;DHT22;33046;52.270;6.832;2022-12-08T03:28:19;5.80;99.90
47310;DHT22;33046;52.270;6.832;2022-12-08T03:30:27;5.80;99.90
47310;DHT22;33046;52.270;6.832;2022-12-08T03:32:38;5.80;99.90
47310;DHT22;33046;52.270;6.832;2022-12-08T03:34:47;5.80;99.90
47310;DHT22;33046;52.270;6.832;2022-12-08T03:36:56;5.80;99.90
47310;DHT22;33046;52.270;6.832;2022-12-08T03:39:03;5.80;99.90
47310;DHT22;33046;52.270;6.832;2022-12-08T03:41:10;5.80;99.90
47310;DHT22;33046;52.270;6.832;2022-12-08T03:43:17;5.80;99.90
47310;DHT22;33046;52.270;6.832;2022-12-08T03:45:24;5.80;99.90
47310;DHT22;33046;52.270;6.832;2022-12-08T03:47:31;5.80;99.90
47310;DHT22;33046;52.270;6.832;2022-12-08T03:49:38;5.80;99.90
47310;DHT22;33046;52.270;6.832;2022-12-08T03:51:45;5.80;99.90
47310;DHT22;33046;52.270;6.832;2022-12-08T03:53:53;5.80;99.90
47310;DHT22;33046;52.270;6.832;2022-12-08T03:56:00;5.80;99.90
47310;DHT22;33046;52.270;6.832;2022-12-08T03:58:06;5.80;99.90
47310;DHT22;33046;52.270;6.832;2022-12-08T04:00:14;5.90;99.90
47310;DHT22;33046;52.270;6.832;2022-12-08T04:02:21;5.80;99.90
47310;DHT22;33046;52.270;6.832;2022-12-08T04:04:28;5.80;99.90
47310;DHT22;33046;52.270;6.832;2022-12-08T04:06:35;5.90;99.90
47310;DHT22;33046;52.270;6.832;2022-12-08T04:08:42;5.90;99.90
47310;DHT22;33046;52.270;6.832;2022-12-08T04:10:50;5.90;99.90
47310;DHT22;33046;52.270;6.832;2022-12-08T04:12:57;5.90;99.90
47310;DHT22;33046;52.270;6.832;2022-12-08T04:15:04;5.90;99.90
47310;DHT22;33046;52.270;6.832;2022-12-08T04:17:11;5.90;99.90
47310;DHT22;33046;52.270;6.832;2022-12-08T04:19:18;5.90;99.90
47310;DHT22;33046;52.270;6.832;2022-12-08T04:21:26;5.90;99.90
47310;DHT22;33046;52.270;6.832;2022-12-08T04:23:33;5.90;99.90
47310;DHT22;33046;52.270;6.832;2022-12-08T04:25:40;5.90;99.90
47310;DHT22;33046;52.270;6.832;2022-12-08T04:27:48;5.90;99.90
47310;DHT22;33046;52.270;6.832;2022-12-08T04:29:54;5.90;99.90
47310;DHT22;33046;52.270;6.832;2022-12-08T04:32:01;5.90;99.90
47310;DHT22;33046;52.270;6.832;2022-12-08T04:34:08;5.90;99.90
47310;DHT22;33046;52.270;6.832;2022-12-08T04:36:15;5.90;99.90
47310;DHT22;33046;52.270;6.832;2022-12-08T04:38:22;5.90;99.90
47310;DHT22;33046;52.270;6.832;2022-12-08T04:40:29;5.90;99.90
47310;DHT22;33046;52.270;6.832;2022-12-08T04:42:36;5.90;99.90
47310;DHT22;33046;52.270;6.832;2022-12-08T04:44:44;5.90;99.90
47310;DHT22;33046;52.270;6.832;2022-12-08T04:46:51;5.90;99.90
47310;DHT22;33046;52.270;6.832;2022-12-08T04:48:58;5.90;99.90
47310;DHT22;33046;52.270;6.832;2022-12-08T04:51:05;5.90;99.90
47310;DHT22;33046;52.270;6.832;2022-12-08T04:53:12;5.90;99.90
47310;DHT22;33046;52.270;6.832;2022-12-08T04:55:19;5.90;99.90
47310;DHT22;33046;52.270;6.832;2022-12-08T04:57:26;5.90;99.90
47310;DHT22;33046;52.270;6.832;2022-12-08T04:59:33;5.90;99.90
47310;DHT22;33046;52.270;6.832;2022-12-08T05:01:41;5.90;99.90
47310;DHT22;33046;52.270;6.832;2022-12-08T05:03:48;5.90;99.90
47310;DHT22;33046;52.270;6.832;2022-12-08T05:05:55;5.90;99.90
47310;DHT22;33046;52.270;6.832;2022-12-08T05:08:02;5.90;99.90
47310;DHT22;33046;52.270;6.832;2022-12-08T05:10:09;5.90;99.90
47310;DHT22;33046;52.270;6.832;2022-12-08T05:12:16;5.90;99.90
47310;DHT22;33046;52.270;6.832;2022-12-08T05:14:23;5.90;99.90
47310;DHT22;33046;52.270;6.832;2022-12-08T05:16:29;5.90;99.90
47310;DHT22;33046;52.270;6.832;2022-12-08T05:18:39;5.90;99.90
47310;DHT22;33046;52.270;6.832;2022-12-08T05:20:46;5.90;99.90
47310;DHT22;33046;52.270;6.832;2022-12-08T05:22:53;5.90;99.90
47310;DHT22;33046;52.270;6.832;2022-12-08T05:24:59;5.90;99.90
47310;DHT22;33046;52.270;6.832;2022-12-08T05:27:07;5.90;99.90
47310;DHT22;33046;52.270;6.832;2022-12-08T05:29:14;5.90;99.90
47310;DHT22;33046;52.270;6.832;2022-12-08T05:31:21;5.90;99.90
47310;DHT22;33046;52.270;6.832;2022-12-08T05:33:28;6.00;99.90
47310;DHT22;33046;52.270;6.832;2022-12-08T05:35:36;6.00;99.90
47310;DHT22;33046;52.270;6.832;2022-12-08T05:37:43;5.90;99.90
47310;DHT22;33046;52.270;6.832;2022-12-08T05:39:50;5.90;99.90
47310;DHT22;33046;52.270;6.832;2022-12-08T05:41:56;5.90;99.90
47310;DHT22;33046;52.270;6.832;2022-12-08T05:44:04;6.00;99.90
47310;DHT22;33046;52.270;6.832;2022-12-08T05:46:11;5.90;99.90
47310;DHT22;33046;52.270;6.832;2022-12-08T05:48:19;5.90;99.90
47310;DHT22;33046;52.270;6.832;2022-12-08T05:50:25;5.90;99.90
47310;DHT22;33046;52.270;6.832;2022-12-08T05:52:35;6.00;99.90
47310;DHT22;33046;52.270;6.832;2022-12-08T05:54:42;5.90;99.90
47310;DHT22;33046;52.270;6.832;2022-12-08T05:56:49;5.90;99.90
47310;DHT22;33046;52.270;6.832;2022-12-08T05:58:55;6.00;99.90
47310;DHT22;33046;52.270;6.832;2022-12-08T06:01:02;6.00;99.90
47310;DHT22;33046;52.270;6.832;2022-12-08T06:03:10;5.90;99.90
47310;DHT22;33046;52.270;6.832;2022-12-08T06:05:17;5.90;99.90
47310;DHT22;33046;52.270;6.832;2022-12-08T06:07:24;6.00;99.90
47310;DHT22;33046;52.270;6.832;2022-12-08T06:09:32;6.00;99.90
47310;DHT22;33046;52.270;6.832;2022-12-08T06:11:39;6.00;99.90
47310;DHT22;33046;52.270;6.832;2022-12-08T06:13:46;6.00;99.90
47310;DHT22;33046;52.270;6.832;2022-12-08T06:15:53;6.00;99.90
47310;DHT22;33046;52.270;6.832;2022-12-08T06:17:59;6.00;99.90
47310;DHT22;33046;52.270;6.832;2022-12-08T06:20:07;6.00;99.90
47310;DHT22;33046;52.270;6.832;2022-12-08T06:22:13;6.00;99.90
47310;DHT22;33046;52.270;6.832;2022-12-08T06:24:21;6.00;99.90
47310;DHT22;33046;52.270;6.832;2022-12-08T06:26:29;6.00;99.90
47310;DHT22;33046;52.270;6.832;2022-12-08T06:28:36;6.00;99.90
47310;DHT22;33046;52.270;6.832;2022-12-08T06:30:43;6.00;99.90
47310;DHT22;33046;52.270;6.832;2022-12-08T06:32:49;6.00;99.90
47310;DHT22;33046;52.270;6.832;2022-12-08T06:34:56;5.90;99.90
47310;DHT22;33046;52.270;6.832;2022-12-08T06:37:03;5.90;99.90
47310;DHT22;33046;52.270;6.832;2022-12-08T06:39:10;5.90;99.90
47310;DHT22;33046;52.270;6.832;2022-12-08T06:41:17;5.90;99.90
47310;DHT22;33046;52.270;6.832;2022-12-08T06:43:25;6.00;99.90
47310;DHT22;33046;52.270;6.832;2022-12-08T06:45:32;5.90;99.90
47310;DHT22;33046;52.270;6.832;2022-12-08T06:47:39;5.90;99.90
47310;DHT22;33046;52.270;6.832;2022-12-08T06:49:46;5.90;99.90
47310;DHT22;33046;52.270;6.832;2022-12-08T06:51:53;5.90;99.90
47310;DHT22;33046;52.270;6.832;2022-12-08T06:54:00;5.90;99.90
47310;DHT22;33046;52.270;6.832;2022-12-08T06:56:07;6.00;99.90
47310;DHT22;33046;52.270;6.832;2022-12-08T06:58:14;5.90;99.90
47310;DHT22;33046;52.270;6.832;2022-12-08T07:00:22;5.90;99.90
47310;DHT22;33046;52.270;6.832;2022-12-08T07:02:29;5.90;99.90
47310;DHT22;33046;52.270;6.832;2022-12-08T07:04:36;5.90;99.90
47310;DHT22;33046;52.270;6.832;2022-12-08T07:06:43;5.90;99.90
47310;DHT22;33046;52.270;6.832;2022-12-08T07:08:50;5.90;99.90
47310;DHT22;33046;52.270;6.832;2022-12-08T07:10:57;5.90;99.90
47310;DHT22;33046;52.270;6.832;2022-12-08T07:13:03;5.90;99.90
47310;DHT22;33046;52.270;6.832;2022-12-08T07:15:10;5.90;99.90
47310;DHT22;33046;52.270;6.832;2022-12-08T07:17:18;5.90;99.90
47310;DHT22;33046;52.270;6.832;2022-12-08T07:19:25;5.90;99.90
47310;DHT22;33046;52.270;6.832;2022-12-08T07:21:32;5.90;99.90
47310;DHT22;33046;52.270;6.832;2022-12-08T07:23:39;5.90;99.90
47310;DHT22;33046;52.270;6.832;2022-12-08T07:25:46;5.90;99.90
47310;DHT22;33046;52.270;6.832;2022-12-08T07:27:53;5.90;99.90
47310;DHT22;33046;52.270;6.832;2022-12-08T07:29:59;5.90;99.90
47310;DHT22;33046;52.270;6.832;2022-12-08T07:32:07;5.90;99.90
47310;DHT22;33046;52.270;6.832;2022-12-08T07:34:15;5.90;99.90
47310;DHT22;33046;52.270;6.832;2022-12-08T07:36:22;5.90;99.90
47310;DHT22;33046;52.270;6.832;2022-12-08T07:38:30;5.90;99.90
47310;DHT22;33046;52.270;6.832;2022-12-08T07:40:37;5.90;99.90
47310;DHT22;33046;52.270;6.832;2022-12-08T07:42:44;5.90;99.90
47310;DHT22;33046;52.270;6.832;2022-12-08T07:44:51;5.80;99.90
47310;DHT22;33046;52.270;6.832;2022-12-08T07:46:57;5.80;99.90
47310;DHT22;33046;52.270;6.832;2022-12-08T07:49:04;5.90;99.90
47310;DHT22;33046;52.270;6.832;2022-12-08T07:51:14;5.90;99.90
47310;DHT22;33046;52.270;6.832;2022-12-08T07:53:21;5.90;99.90
47310;DHT22;33046;52.270;6.832;2022-12-08T07:55:27;5.80;99.90
47310;DHT22;33046;52.270;6.832;2022-12-08T07:57:34;5.80;99.90
47310;DHT22;33046;52.270;6.832;2022-12-08T07:59:41;5.80;99.90
47310;DHT22;33046;52.270;6.832;2022-12-08T08:01:48;5.80;99.90
47310;DHT22;33046;52.270;6.832;2022-12-08T08:04:03;5.90;99.90
47310;DHT22;33046;52.270;6.832;2022-12-08T08:06:10;5.90;99.90
47310;DHT22;33046;52.270;6.832;2022-12-08T08:08:18;5.90;99.90
47310;DHT22;33046;52.270;6.832;2022-12-08T08:10:25;5.80;99.90
47310;DHT22;33046;52.270;6.832;2022-12-08T08:12:32;5.90;99.90
47310;DHT22;33046;52.270;6.832;2022-12-08T08:14:39;5.80;99.90
47310;DHT22;33046;52.270;6.832;2022-12-08T08:16:45;5.90;99.90
47310;DHT22;33046;52.270;6.832;2022-12-08T08:18:52;5.90;99.90
47310;DHT22;33046;52.270;6.832;2022-12-08T08:20:59;5.90;99.90
47310;DHT22;33046;52.270;6.832;2022-12-08T08:23:13;5.90;99.90
47310;DHT22;33046;52.270;6.832;2022-12-08T08:25:21;5.80;99.90
47310;DHT22;33046;52.270;6.832;2022-12-08T08:27:28;5.90;99.90
47310;DHT22;33046;52.270;6.832;2022-12-08T08:29:35;5.90;99.90
47310;DHT22;33046;52.270;6.832;2022-12-08T08:31:42;5.90;99.90
47310;DHT22;33046;52.270;6.832;2022-12-08T08:33:48;5.90;99.90
47310;DHT22;33046;52.270;6.832;2022-12-08T08:35:55;5.90;99.90
47310;DHT22;33046;52.270;6.832;2022-12-08T08:38:02;5.90;99.90
47310;DHT22;33046;52.270;6.832;2022-12-08T08:40:09;5.90;99.90
47310;DHT22;33046;52.270;6.832;2022-12-08T08:42:18;5.90;99.90
47310;DHT22;33046;52.270;6.832;2022-12-08T08:44:24;5.90;99.90
47310;DHT22;33046;52.270;6.832;2022-12-08T08:46:32;5.90;99.90
47310;DHT22;33046;52.270;6.832;2022-12-08T08:48:38;5.90;99.90
47310;DHT22;33046;52.270;6.832;2022-12-08T08:50:45;5.90;99.90
47310;DHT22;33046;52.270;6.832;2022-12-08T08:52:52;5.90;99.90
47310;DHT22;33046;52.270;6.832;2022-12-08T08:54:59;6.00;99.90
47310;DHT22;33046;52.270;6.832;2022-12-08T08:57:06;6.00;99.90
47310;DHT22;33046;52.270;6.832;2022-12-08T08:59:15;6.00;99.90
47310;DHT22;33046;52.270;6.832;2022-12-08T09:01:23;6.00;99.90
47310;DHT22;33046;52.270;6.832;2022-12-08T09:03:30;6.00;99.90
47310;DHT22;33046;52.270;6.832;2022-12-08T09:05:37;6.00;99.90
47310;DHT22;33046;52.270;6.832;2022-12-08T09:07:44;6.00;99.90
47310;DHT22;33046;52.270;6.832;2022-12-08T09:09:51;6.00;99.90
47310;DHT22;33046;52.270;6.832;2022-12-08T09:12:00;6.00;99.90
47310;DHT22;33046;52.270;6.832;2022-12-08T09:14:08;6.00;99.90
47310;DHT22;33046;52.270;6.832;2022-12-08T09:16:18;6.00;99.90
47310;DHT22;33046;52.270;6.832;2022-12-08T09:18:25;6.00;99.90
47310;DHT22;33046;52.270;6.832;2022-12-08T09:20:32;6.00;99.90
47310;DHT22;33046;52.270;6.832;2022-12-08T09:22:39;6.10;99.90
47310;DHT22;33046;52.270;6.832;2022-12-08T09:24:45;6.00;99.90
47310;DHT22;33046;52.270;6.832;2022-12-08T09:26:52;6.00;99.90
47310;DHT22;33046;52.270;6.832;2022-12-08T09:28:59;6.10;99.90
47310;DHT22;33046;52.270;6.832;2022-12-08T09:31:06;6.00;99.90
47310;DHT22;33046;52.270;6.832;2022-12-08T09:33:14;6.10;99.90
47310;DHT22;33046;52.270;6.832;2022-12-08T09:35:21;6.10;99.90
47310;DHT22;33046;52.270;6.832;2022-12-08T09:37:27;6.10;99.90
47310;DHT22;33046;52.270;6.832;2022-12-08T09:39:34;6.10;99.90
47310;DHT22;33046;52.270;6.832;2022-12-08T09:41:44;6.10;99.90
47310;DHT22;33046;52.270;6.832;2022-12-08T09:44:02;6.10;99.90
47310;DHT22;33046;52.270;6.832;2022-12-08T09:46:13;6.10;99.90
47310;DHT22;33046;52.270;6.832;2022-12-08T09:48:23;6.10;99.90
47310;DHT22;33046;52.270;6.832;2022-12-08T09:50:35;6.10;99.90
47310;DHT22;33046;52.270;6.832;2022-12-08T09:52:46;6.10;99.90
47310;DHT22;33046;52.270;6.832;2022-12-08T09:54:55;6.10;99.90
47310;DHT22;33046;52.270;6.832;2022-12-08T09:57:07;6.10;99.90
47310;DHT22;33046;52.270;6.832;2022-12-08T09:59:24;6.20;99.90
47310;DHT22;33046;52.270;6.832;2022-12-08T10:01:35;6.20;99.90
47310;DHT22;33046;52.270;6.832;2022-12-08T10:03:43;6.20;99.90
47310;DHT22;33046;52.270;6.832;2022-12-08T10:05:56;6.20;99.90
47310;DHT22;33046;52.270;6.832;2022-12-08T10:08:09;6.20;99.90
47310;DHT22;33046;52.270;6.832;2022-12-08T10:10:25;6.20;99.90
47310;DHT22;33046;52.270;6.832;2022-12-08T10:12:40;6.20;99.90
47310;DHT22;33046;52.270;6.832;2022-12-08T10:14:58;6.20;99.90
47310;DHT22;33046;52.270;6.832;2022-12-08T10:17:13;6.30;99.90
47310;DHT22;33046;52.270;6.832;2022-12-08T10:19:24;6.30;99.90
47310;DHT22;33046;52.270;6.832;2022-12-08T10:21:32;6.30;99.90
47310;DHT22;33046;52.270;6.832;2022-12-08T10:23:40;6.30;99.90
47310;DHT22;33046;52.270;6.832;2022-12-08T10:25:51;6.30;99.90
47310;DHT22;33046;52.270;6.832;2022-12-08T10:28:00;6.30;99.90
47310;DHT22;33046;52.270;6.832;2022-12-08T10:30:10;6.30;99.90
47310;DHT22;33046;52.270;6.832;2022-12-08T10:32:19;6.40;99.90
47310;DHT22;33046;52.270;6.832;2022-12-08T10:34:28;6.40;99.90
47310;DHT22;33046;52.270;6.832;2022-12-08T10:36:48;6.40;99.90
47310;DHT22;33046;52.270;6.832;2022-12-08T10:38:56;6.40;99.90
47310;DHT22;33046;52.270;6.832;2022-12-08T10:41:05;6.40;99.90
47310;DHT22;33046;52.270;6.832;2022-12-08T10:43:14;6.40;99.90
47310;DHT22;33046;52.270;6.832;2022-12-08T10:45:24;6.50;99.90
47310;DHT22;33046;52.270;6.832;2022-12-08T10:47:35;6.50;99.90
47310;DHT22;33046;52.270;6.832;2022-12-08T10:49:43;6.50;99.90
47310;DHT22;33046;52.270;6.832;2022-12-08T10:51:50;6.50;99.90
47310;DHT22;33046;52.270;6.832;2022-12-08T10:53:57;6.50;99.90
47310;DHT22;33046;52.270;6.832;2022-12-08T10:56:13;6.60;99.90
47310;DHT22;33046;52.270;6.832;2022-12-08T10:58:25;6.60;99.90
47310;DHT22;33046;52.270;6.832;2022-12-08T11:00:33;6.60;99.90
47310;DHT22;33046;52.270;6.832;2022-12-08T11:02:52;6.60;99.90
47310;DHT22;33046;52.270;6.832;2022-12-08T11:05:00;6.60;99.90
47310;DHT22;33046;52.270;6.832;2022-12-08T11:07:08;6.60;99.90
47310;DHT22;33046;52.270;6.832;2022-12-08T11:09:25;6.70;99.90
47310;DHT22;33046;52.270;6.832;2022-12-08T11:11:38;6.70;99.90
47310;DHT22;33046;52.270;6.832;2022-12-08T11:13:47;6.70;99.90
47310;DHT22;33046;52.270;6.832;2022-12-08T11:15:56;6.70;99.90
47310;DHT22;33046;52.270;6.832;2022-12-08T11:18:17;6.70;99.90
47310;DHT22;33046;52.270;6.832;2022-12-08T11:20:36;6.70;99.90
47310;DHT22;33046;52.270;6.832;2022-12-08T11:22:45;6.80;99.90
47310;DHT22;33046;52.270;6.832;2022-12-08T11:25:00;6.70;99.90
47310;DHT22;33046;52.270;6.832;2022-12-08T11:27:07;6.70;99.90
47310;DHT22;33046;52.270;6.832;2022-12-08T11:29:14;6.80;99.90
47310;DHT22;33046;52.270;6.832;2022-12-08T11:31:26;6.80;99.90
47310;DHT22;33046;52.270;6.832;2022-12-08T11:33:34;6.80;99.90
47310;DHT22;33046;52.270;6.832;2022-12-08T11:35:44;6.80;99.90
47310;DHT22;33046;52.270;6.832;2022-12-08T11:37:52;6.80;99.90
47310;DHT22;33046;52.270;6.832;2022-12-08T11:40:15;6.80;99.90
47310;DHT22;33046;52.270;6.832;2022-12-08T11:42:27;6.80;99.90
47310;DHT22;33046;52.270;6.832;2022-12-08T11:44:43;6.80;99.90
47310;DHT22;33046;52.270;6.832;2022-12-08T11:46:54;6.90;99.90
47310;DHT22;33046;52.270;6.832;2022-12-08T11:49:04;6.90;99.90
47310;DHT22;33046;52.270;6.832;2022-12-08T11:51:16;6.90;99.90
47310;DHT22;33046;52.270;6.832;2022-12-08T11:53:27;6.90;99.90
47310;DHT22;33046;52.270;6.832;2022-12-08T11:55:40;6.90;99.90
47310;DHT22;33046;52.270;6.832;2022-12-08T11:57:51;6.90;99.90
47310;DHT22;33046;52.270;6.832;2022-12-08T12:00:00;6.90;99.90
47310;DHT22;33046;52.270;6.832;2022-12-08T12:02:19;6.90;99.90
47310;DHT22;33046;52.270;6.832;2022-12-08T12:04:31;6.90;99.90
47310;DHT22;33046;52.270;6.832;2022-12-08T12:07:08;6.90;99.90
47310;DHT22;33046;52.270;6.832;2022-12-08T12:09:18;6.90;99.90
47310;DHT22;33046;52.270;6.832;2022-12-08T12:11:34;7.00;99.90
47310;DHT22;33046;52.270;6.832;2022-12-08T12:13:57;6.90;99.90
47310;DHT22;33046;52.270;6.832;2022-12-08T12:16:21;7.00;99.90
47310;DHT22;33046;52.270;6.832;2022-12-08T12:18:38;6.90;99.90
47310;DHT22;33046;52.270;6.832;2022-12-08T12:20:51;6.90;99.90
47310;DHT22;33046;52.270;6.832;2022-12-08T12:23:04;6.90;99.90
47310;DHT22;33046;52.270;6.832;2022-12-08T12:25:20;6.90;99.90
47310;DHT22;33046;52.270;6.832;2022-12-08T12:27:30;6.90;99.90
47310;DHT22;33046;52.270;6.832;2022-12-08T12:29:45;6.90;99.90
47310;DHT22;33046;52.270;6.832;2022-12-08T12:31:57;6.90;99.90
47310;DHT22;33046;52.270;6.832;2022-12-08T12:34:07;7.00;99.90
47310;DHT22;33046;52.270;6.832;2022-12-08T12:36:17;6.90;99.90
47310;DHT22;33046;52.270;6.832;2022-12-08T12:38:31;6.90;99.90
47310;DHT22;33046;52.270;6.832;2022-12-08T12:40:41;7.00;99.90
47310;DHT22;33046;52.270;6.832;2022-12-08T12:43:11;6.90;99.90
47310;DHT22;33046;52.270;6.832;2022-12-08T12:45:29;6.90;99.90
47310;DHT22;33046;52.270;6.832;2022-12-08T12:47:45;6.90;99.90
47310;DHT22;33046;52.270;6.832;2022-12-08T12:50:13;6.90;99.90
47310;DHT22;33046;52.270;6.832;2022-12-08T12:52:46;6.90;99.90
47310;DHT22;33046;52.270;6.832;2022-12-08T12:55:20;6.90;99.90
47310;DHT22;33046;52.270;6.832;2022-12-08T12:57:35;6.90;99.90
47310;DHT22;33046;52.270;6.832;2022-12-08T12:59:44;6.90;99.90
47310;DHT22;33046;52.270;6.832;2022-12-08T13:01:53;6.90;99.90
47310;DHT22;33046;52.270;6.832;2022-12-08T13:04:03;6.90;99.90
47310;DHT22;33046;52.270;6.832;2022-12-08T13:06:12;6.90;99.90
47310;DHT22;33046;52.270;6.832;2022-12-08T13:08:21;6.90;99.90
47310;DHT22;33046;52.270;6.832;2022-12-08T13:10:31;6.90;99.90
47310;DHT22;33046;52.270;6.832;2022-12-08T13:12:39;6.90;99.90
47310;DHT22;33046;52.270;6.832;2022-12-08T13:14:48;6.90;99.90
47310;DHT22;33046;52.270;6.832;2022-12-08T13:16:59;6.90;99.90
47310;DHT22;33046;52.270;6.832;2022-12-08T13:19:12;6.90;99.90
47310;DHT22;33046;52.270;6.832;2022-12-08T13:21:21;7.00;99.90
47310;DHT22;33046;52.270;6.832;2022-12-08T13:23:41;6.90;99.90
47310;DHT22;33046;52.270;6.832;2022-12-08T13:25:52;6.90;99.90
47310;DHT22;33046;52.270;6.832;2022-12-08T13:28:27;6.90;99.90
47310;DHT22;33046;52.270;6.832;2022-12-08T13:30:43;6.90;99.90
47310;DHT22;33046;52.270;6.832;2022-12-08T13:32:58;7.00;99.90
47310;DHT22;33046;52.270;6.832;2022-12-08T13:35:26;6.90;99.90
47310;DHT22;33046;52.270;6.832;2022-12-08T13:37:43;6.90;99.90
47310;DHT22;33046;52.270;6.832;2022-12-08T13:39:59;6.90;99.90
47310;DHT22;33046;52.270;6.832;2022-12-08T13:42:17;6.90;99.90
47310;DHT22;33046;52.270;6.832;2022-12-08T13:44:30;6.90;99.90
47310;DHT22;33046;52.270;6.832;2022-12-08T13:46:58;6.80;99.90
47310;DHT22;33046;52.270;6.832;2022-12-08T13:49:28;6.90;99.90
47310;DHT22;33046;52.270;6.832;2022-12-08T13:51:56;6.80;99.90
47310;DHT22;33046;52.270;6.832;2022-12-08T13:54:26;6.80;99.90